sensor_id;sensor_type;location;lat;lon;timestamp;temperature;humidity
25918;DHT22;13899;51.174;4.456;2024-02-26T00:00:39;8.00;99.90
25918;DHT22;13899;51.174;4.456;2024-02-26T00:03:04;8.00;99.90
25918;DHT22;13899;51.174;4.456;2024-02-26T00:05:30;8.20;99.90
25918;DHT22;13899;51.174;4.456;2024-02-26T00:07:56;8.10;99.90
25918;DHT22;13899;51.174;4.456;2024-02-26T00:10:22;8.20;99.90
25918;DHT22;13899;51.174;4.456;2024-02-26T00:12:47;8.20;99.90
25918;DHT22;13899;51.174;4.456;2024-02-26T00:15:13;8.10;99.90
25918;DHT22;13899;51.174;4.456;2024-02-26T00:17:39;7.70;99.90
25918;DHT22;13899;51.174;4.456;2024-02-26T00:20:05;7.70;99.90
25918;DHT22;13899;51.174;4.456;2024-02-26T00:22:34;8.10;99.90
25918;DHT22;13899;51.174;4.456;2024-02-26T00:25:00;8.00;99.90
25918;DHT22;13899;51.174;4.456;2024-02-26T00:27:25;8.20;99.90
25918;DHT22;13899;51.174;4.456;2024-02-26T00:29:51;8.20;99.90
25918;DHT22;13899;51.174;4.456;2024-02-26T00:32:16;8.30;99.90
25918;DHT22;13899;51.174;4.456;2024-02-26T00:34:42;8.20;99.90
25918;DHT22;13899;51.174;4.456;2024-02-26T00:37:07;8.00;99.90
25918;DHT22;13899;51.174;4.456;2024-02-26T00:39:33;7.80;99.90
25918;DHT22;13899;51.174;4.456;2024-02-26T00:41:58;7.90;99.90
25918;DHT22;13899;51.174;4.456;2024-02-26T00:44:24;7.90;99.90
25918;DHT22;13899;51.174;4.456;2024-02-26T00:46:49;8.00;99.90
25918;DHT22;13899;51.174;4.456;2024-02-26T00:49:15;7.90;99.90
25918;DHT22;13899;51.174;4.456;2024-02-26T00:51:40;7.80;99.90
25918;DHT22;13899;51.174;4.456;2024-02-26T00:54:05;7.80;99.90
25918;DHT22;13899;51.174;4.456;2024-02-26T00:56:31;7.90;99.90
25918;DHT22;13899;51.174;4.456;2024-02-26T00:58:56;7.90;99.90
25918;DHT22;13899;51.174;4.456;2024-02-26T01:01:22;7.90;99.90
25918;DHT22;13899;51.174;4.456;2024-02-26T01:03:47;8.00;99.90
25918;DHT22;13899;51.174;4.456;2024-02-26T01:06:13;7.80;99.90
25918;DHT22;13899;51.174;4.456;2024-02-26T01:08:38;7.80;99.90
25918;DHT22;13899;51.174;4.456;2024-02-26T01:11:04;7.50;99.90
25918;DHT22;13899;51.174;4.456;2024-02-26T01:13:30;7.50;99.90
25918;DHT22;13899;51.174;4.456;2024-02-26T01:15:55;7.60;99.90
25918;DHT22;13899;51.174;4.456;2024-02-26T01:18:21;7.70;99.90
25918;DHT22;13899;51.174;4.456;2024-02-26T01:20:47;7.50;99.90
25918;DHT22;13899;51.174;4.456;2024-02-26T01:23:13;7.50;99.90
25918;DHT22;13899;51.174;4.456;2024-02-26T01:25:38;7.50;99.90
25918;DHT22;13899;51.174;4.456;2024-02-26T01:28:04;7.50;99.90
25918;DHT22;13899;51.174;4.456;2024-02-26T01:30:30;7.70;99.90
25918;DHT22;13899;51.174;4.456;2024-02-26T01:32:56;7.60;99.90
25918;DHT22;13899;51.174;4.456;2024-02-26T01:35:21;7.60;99.90
25918;DHT22;13899;51.174;4.456;2024-02-26T01:37:47;7.50;99.90
25918;DHT22;13899;51.174;4.456;2024-02-26T01:40:12;7.40;99.90
25918;DHT22;13899;51.174;4.456;2024-02-26T01:42:43;7.40;99.90
25918;DHT22;13899;51.174;4.456;2024-02-26T01:45:12;7.30;99.90
25918;DHT22;13899;51.174;4.456;2024-02-26T01:47:40;7.40;99.90
25918;DHT22;13899;51.174;4.456;2024-02-26T01:50:06;7.50;99.90
25918;DHT22;13899;51.174;4.456;2024-02-26T01:52:32;7.40;99.90
25918;DHT22;13899;51.174;4.456;2024-02-26T01:54:57;7.40;99.90
25918;DHT22;13899;51.174;4.456;2024-02-26T01:57:23;7.50;99.90
25918;DHT22;13899;51.174;4.456;2024-02-26T01:59:49;7.30;99.90
25918;DHT22;13899;51.174;4.456;2024-02-26T02:02:14;7.30;99.90
25918;DHT22;13899;51.174;4.456;2024-02-26T02:04:40;7.30;99.90
25918;DHT22;13899;51.174;4.456;2024-02-26T02:07:06;7.20;99.90
25918;DHT22;13899;51.174;4.456;2024-02-26T02:09:31;7.30;99.90
25918;DHT22;13899;51.174;4.456;2024-02-26T02:11:57;7.30;99.90
25918;DHT22;13899;51.174;4.456;2024-02-26T02:14:23;7.30;99.90
25918;DHT22;13899;51.174;4.456;2024-02-26T02:16:49;7.20;99.90
25918;DHT22;13899;51.174;4.456;2024-02-26T02:19:14;7.20;99.90
25918;DHT22;13899;51.174;4.456;2024-02-26T02:21:40;7.20;99.90
25918;DHT22;13899;51.174;4.456;2024-02-26T02:24:05;7.10;99.90
25918;DHT22;13899;51.174;4.456;2024-02-26T02:26:31;7.20;99.90
25918;DHT22;13899;51.174;4.456;2024-02-26T02:28:56;7.20;99.90
25918;DHT22;13899;51.174;4.456;2024-02-26T02:31:22;7.10;99.90
25918;DHT22;13899;51.174;4.456;2024-02-26T02:33:48;7.30;99.90
25918;DHT22;13899;51.174;4.456;2024-02-26T02:36:13;7.30;99.90
25918;DHT22;13899;51.174;4.456;2024-02-26T02:38:48;7.20;99.90
25918;DHT22;13899;51.174;4.456;2024-02-26T02:41:14;7.40;99.90
25918;DHT22;13899;51.174;4.456;2024-02-26T02:43:40;7.40;99.90
25918;DHT22;13899;51.174;4.456;2024-02-26T02:46:05;7.40;99.90
25918;DHT22;13899;51.174;4.456;2024-02-26T02:48:31;7.40;99.90
25918;DHT22;13899;51.174;4.456;2024-02-26T02:50:56;7.30;99.90
25918;DHT22;13899;51.174;4.456;2024-02-26T02:53:22;7.30;99.90
25918;DHT22;13899;51.174;4.456;2024-02-26T02:55:47;7.20;99.90
25918;DHT22;13899;51.174;4.456;2024-02-26T02:58:13;7.20;99.90
25918;DHT22;13899;51.174;4.456;2024-02-26T03:00:38;7.20;99.90
25918;DHT22;13899;51.174;4.456;2024-02-26T03:03:04;7.00;99.90
25918;DHT22;13899;51.174;4.456;2024-02-26T03:05:29;6.90;99.90
25918;DHT22;13899;51.174;4.456;2024-02-26T03:07:55;6.90;99.90
25918;DHT22;13899;51.174;4.456;2024-02-26T03:10:20;6.80;99.90
25918;DHT22;13899;51.174;4.456;2024-02-26T03:12:46;6.90;99.90
25918;DHT22;13899;51.174;4.456;2024-02-26T03:15:11;6.90;99.90
25918;DHT22;13899;51.174;4.456;2024-02-26T03:17:37;7.00;99.90
25918;DHT22;13899;51.174;4.456;2024-02-26T03:20:02;7.00;99.90
25918;DHT22;13899;51.174;4.456;2024-02-26T03:22:30;6.90;99.90
25918;DHT22;13899;51.174;4.456;2024-02-26T03:24:56;6.90;99.90
25918;DHT22;13899;51.174;4.456;2024-02-26T03:27:21;7.00;99.90
25918;DHT22;13899;51.174;4.456;2024-02-26T03:29:47;6.90;99.90
25918;DHT22;13899;51.174;4.456;2024-02-26T03:32:13;6.90;99.90
25918;DHT22;13899;51.174;4.456;2024-02-26T03:34:38;7.10;99.90
25918;DHT22;13899;51.174;4.456;2024-02-26T03:37:07;6.90;99.90
25918;DHT22;13899;51.174;4.456;2024-02-26T03:39:34;7.00;99.90
25918;DHT22;13899;51.174;4.456;2024-02-26T03:42:00;6.90;99.90
25918;DHT22;13899;51.174;4.456;2024-02-26T03:44:25;7.00;99.90
25918;DHT22;13899;51.174;4.456;2024-02-26T03:46:51;7.00;99.90
25918;DHT22;13899;51.174;4.456;2024-02-26T03:49:16;7.00;99.90
25918;DHT22;13899;51.174;4.456;2024-02-26T03:51:42;7.00;99.90
25918;DHT22;13899;51.174;4.456;2024-02-26T03:54:07;7.00;99.90
25918;DHT22;13899;51.174;4.456;2024-02-26T03:56:33;6.90;99.90
25918;DHT22;13899;51.174;4.456;2024-02-26T03:58:58;7.00;99.90
25918;DHT22;13899;51.174;4.456;2024-02-26T04:01:25;6.90;99.90
25918;DHT22;13899;51.174;4.456;2024-02-26T04:03:50;6.90;99.90
25918;DHT22;13899;51.174;4.456;2024-02-26T04:06:18;6.90;99.90
25918;DHT22;13899;51.174;4.456;2024-02-26T04:08:46;6.90;99.90
25918;DHT22;13899;51.174;4.456;2024-02-26T04:11:12;6.90;99.90
25918;DHT22;13899;51.174;4.456;2024-02-26T04:13:37;7.00;99.90
25918;DHT22;13899;51.174;4.456;2024-02-26T04:16:06;6.90;99.90
25918;DHT22;13899;51.174;4.456;2024-02-26T04:18:32;6.90;99.90
25918;DHT22;13899;51.174;4.456;2024-02-26T04:20:58;6.90;99.90
25918;DHT22;13899;51.174;4.456;2024-02-26T04:23:24;6.90;99.90
25918;DHT22;13899;51.174;4.456;2024-02-26T04:25:49;6.90;99.90
25918;DHT22;13899;51.174;4.456;2024-02-26T04:28:15;6.90;99.90
25918;DHT22;13899;51.174;4.456;2024-02-26T04:30:41;6.90;99.90
25918;DHT22;13899;51.174;4.456;2024-02-26T04:33:06;6.90;99.90
25918;DHT22;13899;51.174;4.456;2024-02-26T04:35:32;6.90;99.90
25918;DHT22;13899;51.174;4.456;2024-02-26T04:37:57;7.00;99.90
25918;DHT22;13899;51.174;4.456;2024-02-26T04:40:23;7.00;99.90
25918;DHT22;13899;51.174;4.456;2024-02-26T04:42:49;7.10;99.90
25918;DHT22;13899;51.174;4.456;2024-02-26T04:45:15;7.10;99.90
25918;DHT22;13899;51.174;4.456;2024-02-26T04:47:40;7.00;99.90
25918;DHT22;13899;51.174;4.456;2024-02-26T04:50:06;7.10;99.90
25918;DHT22;13899;51.174;4.456;2024-02-26T04:52:31;7.00;99.90
25918;DHT22;13899;51.174;4.456;2024-02-26T04:54:57;7.20;99.90
25918;DHT22;13899;51.174;4.456;2024-02-26T04:57:25;7.00;99.90
25918;DHT22;13899;51.174;4.456;2024-02-26T04:59:51;7.00;99.90
25918;DHT22;13899;51.174;4.456;2024-02-26T05:02:17;6.90;99.90
25918;DHT22;13899;51.174;4.456;2024-02-26T05:04:42;7.00;99.90
25918;DHT22;13899;51.174;4.456;2024-02-26T05:07:09;6.90;99.90
25918;DHT22;13899;51.174;4.456;2024-02-26T05:09:35;7.00;99.90
25918;DHT22;13899;51.174;4.456;2024-02-26T05:12:00;7.00;99.90
25918;DHT22;13899;51.174;4.456;2024-02-26T05:14:26;6.90;99.90
25918;DHT22;13899;51.174;4.456;2024-02-26T05:16:51;7.00;99.90
25918;DHT22;13899;51.174;4.456;2024-02-26T05:19:17;7.10;99.90
25918;DHT22;13899;51.174;4.456;2024-02-26T05:21:42;7.00;99.90
25918;DHT22;13899;51.174;4.456;2024-02-26T05:24:09;7.10;99.90
25918;DHT22;13899;51.174;4.456;2024-02-26T05:26:35;7.00;99.90
25918;DHT22;13899;51.174;4.456;2024-02-26T05:29:00;7.00;99.90
25918;DHT22;13899;51.174;4.456;2024-02-26T05:31:26;7.00;99.90
25918;DHT22;13899;51.174;4.456;2024-02-26T05:33:51;7.00;99.90
25918;DHT22;13899;51.174;4.456;2024-02-26T05:36:18;6.90;99.90
25918;DHT22;13899;51.174;4.456;2024-02-26T05:38:43;6.90;99.90
25918;DHT22;13899;51.174;4.456;2024-02-26T05:41:11;6.90;99.90
25918;DHT22;13899;51.174;4.456;2024-02-26T05:43:37;6.90;99.90
25918;DHT22;13899;51.174;4.456;2024-02-26T05:46:03;6.90;99.90
25918;DHT22;13899;51.174;4.456;2024-02-26T05:48:28;6.90;99.90
25918;DHT22;13899;51.174;4.456;2024-02-26T05:50:54;6.90;99.90
25918;DHT22;13899;51.174;4.456;2024-02-26T05:53:19;6.90;99.90
25918;DHT22;13899;51.174;4.456;2024-02-26T05:55:45;7.00;99.90
25918;DHT22;13899;51.174;4.456;2024-02-26T05:58:10;6.90;99.90
25918;DHT22;13899;51.174;4.456;2024-02-26T06:00:35;6.90;99.90
25918;DHT22;13899;51.174;4.456;2024-02-26T06:03:01;6.90;99.90
25918;DHT22;13899;51.174;4.456;2024-02-26T06:05:27;6.90;99.90
25918;DHT22;13899;51.174;4.456;2024-02-26T06:07:53;6.90;99.90
25918;DHT22;13899;51.174;4.456;2024-02-26T06:10:19;7.00;99.90
25918;DHT22;13899;51.174;4.456;2024-02-26T06:12:46;6.90;99.90
25918;DHT22;13899;51.174;4.456;2024-02-26T06:15:12;7.00;99.90
25918;DHT22;13899;51.174;4.456;2024-02-26T06:17:38;6.90;99.90
25918;DHT22;13899;51.174;4.456;2024-02-26T06:20:03;6.80;99.90
25918;DHT22;13899;51.174;4.456;2024-02-26T06:22:31;6.70;99.90
25918;DHT22;13899;51.174;4.456;2024-02-26T06:24:57;6.90;99.90
25918;DHT22;13899;51.174;4.456;2024-02-26T06:27:22;6.80;99.90
25918;DHT22;13899;51.174;4.456;2024-02-26T06:29:49;6.80;99.90
25918;DHT22;13899;51.174;4.456;2024-02-26T06:32:14;6.80;99.90
25918;DHT22;13899;51.174;4.456;2024-02-26T06:34:40;6.70;99.90
25918;DHT22;13899;51.174;4.456;2024-02-26T06:37:07;6.70;99.90
25918;DHT22;13899;51.174;4.456;2024-02-26T06:39:33;6.50;99.90
25918;DHT22;13899;51.174;4.456;2024-02-26T06:41:59;6.50;99.90
25918;DHT22;13899;51.174;4.456;2024-02-26T06:44:27;6.60;99.90
25918;DHT22;13899;51.174;4.456;2024-02-26T06:46:57;6.60;99.90
25918;DHT22;13899;51.174;4.456;2024-02-26T06:49:23;6.70;99.90
25918;DHT22;13899;51.174;4.456;2024-02-26T06:51:49;6.70;99.90
25918;DHT22;13899;51.174;4.456;2024-02-26T06:54:14;6.60;99.90
25918;DHT22;13899;51.174;4.456;2024-02-26T06:56:40;6.50;99.90
25918;DHT22;13899;51.174;4.456;2024-02-26T06:59:05;6.60;99.90
25918;DHT22;13899;51.174;4.456;2024-02-26T07:01:31;6.60;99.90
25918;DHT22;13899;51.174;4.456;2024-02-26T07:03:56;6.60;99.90
25918;DHT22;13899;51.174;4.456;2024-02-26T07:06:22;6.60;99.90
25918;DHT22;13899;51.174;4.456;2024-02-26T07:08:47;6.70;99.90
25918;DHT22;13899;51.174;4.456;2024-02-26T07:11:13;6.70;99.90
25918;DHT22;13899;51.174;4.456;2024-02-26T07:13:38;6.80;99.90
25918;DHT22;13899;51.174;4.456;2024-02-26T07:16:04;6.70;99.90
25918;DHT22;13899;51.174;4.456;2024-02-26T07:18:29;6.80;99.90
25918;DHT22;13899;51.174;4.456;2024-02-26T07:20:55;6.80;99.90
25918;DHT22;13899;51.174;4.456;2024-02-26T07:23:21;6.80;99.90
25918;DHT22;13899;51.174;4.456;2024-02-26T07:25:46;6.80;99.90
25918;DHT22;13899;51.174;4.456;2024-02-26T07:28:14;6.80;99.90
25918;DHT22;13899;51.174;4.456;2024-02-26T07:30:39;6.80;99.90
25918;DHT22;13899;51.174;4.456;2024-02-26T07:33:05;6.80;99.90
25918;DHT22;13899;51.174;4.456;2024-02-26T07:35:31;6.70;99.90
25918;DHT22;13899;51.174;4.456;2024-02-26T07:37:58;6.70;99.90
25918;DHT22;13899;51.174;4.456;2024-02-26T07:40:24;6.70;99.90
25918;DHT22;13899;51.174;4.456;2024-02-26T07:42:50;6.70;99.90
25918;DHT22;13899;51.174;4.456;2024-02-26T07:45:16;6.70;99.90
25918;DHT22;13899;51.174;4.456;2024-02-26T07:47:45;6.70;99.90
25918;DHT22;13899;51.174;4.456;2024-02-26T07:50:11;6.80;99.90
25918;DHT22;13899;51.174;4.456;2024-02-26T07:52:37;6.70;99.90
25918;DHT22;13899;51.174;4.456;2024-02-26T07:55:03;6.60;99.90
25918;DHT22;13899;51.174;4.456;2024-02-26T07:57:28;6.70;99.90
25918;DHT22;13899;51.174;4.456;2024-02-26T07:59:54;6.80;99.90
25918;DHT22;13899;51.174;4.456;2024-02-26T08:02:20;6.90;99.90
25918;DHT22;13899;51.174;4.456;2024-02-26T08:04:46;6.80;99.90
25918;DHT22;13899;51.174;4.456;2024-02-26T08:07:13;7.00;99.90
25918;DHT22;13899;51.174;4.456;2024-02-26T08:09:39;7.00;99.90
25918;DHT22;13899;51.174;4.456;2024-02-26T08:12:05;7.00;99.90
25918;DHT22;13899;51.174;4.456;2024-02-26T08:14:30;7.00;99.90
25918;DHT22;13899;51.174;4.456;2024-02-26T08:16:58;7.10;99.90
25918;DHT22;13899;51.174;4.456;2024-02-26T08:19:24;7.00;99.90
25918;DHT22;13899;51.174;4.456;2024-02-26T08:21:49;7.00;99.90
25918;DHT22;13899;51.174;4.456;2024-02-26T08:24:15;7.00;99.90
25918;DHT22;13899;51.174;4.456;2024-02-26T08:26:40;7.10;99.90
25918;DHT22;13899;51.174;4.456;2024-02-26T08:29:06;7.20;99.90
25918;DHT22;13899;51.174;4.456;2024-02-26T08:31:31;7.10;99.90
25918;DHT22;13899;51.174;4.456;2024-02-26T08:33:57;7.10;99.90
25918;DHT22;13899;51.174;4.456;2024-02-26T08:36:24;7.10;99.90
25918;DHT22;13899;51.174;4.456;2024-02-26T08:38:49;7.00;99.90
25918;DHT22;13899;51.174;4.456;2024-02-26T08:41:15;7.00;99.90
25918;DHT22;13899;51.174;4.456;2024-02-26T08:43:40;6.90;99.90
25918;DHT22;13899;51.174;4.456;2024-02-26T08:46:08;6.80;99.90
25918;DHT22;13899;51.174;4.456;2024-02-26T08:48:33;6.80;99.90
25918;DHT22;13899;51.174;4.456;2024-02-26T08:50:59;6.60;99.90
25918;DHT22;13899;51.174;4.456;2024-02-26T08:53:24;6.80;99.90
25918;DHT22;13899;51.174;4.456;2024-02-26T08:55:52;6.90;99.90
25918;DHT22;13899;51.174;4.456;2024-02-26T08:58:17;6.90;99.90
25918;DHT22;13899;51.174;4.456;2024-02-26T09:00:43;6.90;99.90
25918;DHT22;13899;51.174;4.456;2024-02-26T09:03:08;6.90;99.90
25918;DHT22;13899;51.174;4.456;2024-02-26T09:05:34;6.90;99.90
25918;DHT22;13899;51.174;4.456;2024-02-26T09:08:00;6.80;99.90
25918;DHT22;13899;51.174;4.456;2024-02-26T09:10:25;6.80;99.90
25918;DHT22;13899;51.174;4.456;2024-02-26T09:12:51;7.00;99.90
25918;DHT22;13899;51.174;4.456;2024-02-26T09:15:16;6.90;99.90
25918;DHT22;13899;51.174;4.456;2024-02-26T09:17:42;6.80;99.90
25918;DHT22;13899;51.174;4.456;2024-02-26T09:20:07;6.80;99.90
25918;DHT22;13899;51.174;4.456;2024-02-26T09:22:34;6.80;99.90
25918;DHT22;13899;51.174;4.456;2024-02-26T09:25:03;6.80;99.90
25918;DHT22;13899;51.174;4.456;2024-02-26T09:27:29;6.90;99.90
25918;DHT22;13899;51.174;4.456;2024-02-26T09:29:58;6.90;99.90
25918;DHT22;13899;51.174;4.456;2024-02-26T09:32:23;6.90;99.90
25918;DHT22;13899;51.174;4.456;2024-02-26T09:34:50;6.90;99.90
25918;DHT22;13899;51.174;4.456;2024-02-26T09:37:15;6.90;99.90
25918;DHT22;13899;51.174;4.456;2024-02-26T09:39:41;6.90;99.90
25918;DHT22;13899;51.174;4.456;2024-02-26T09:42:06;6.80;99.90
25918;DHT22;13899;51.174;4.456;2024-02-26T09:44:36;6.90;99.90
25918;DHT22;13899;51.174;4.456;2024-02-26T09:47:03;6.90;99.90
25918;DHT22;13899;51.174;4.456;2024-02-26T09:49:30;6.80;99.90
25918;DHT22;13899;51.174;4.456;2024-02-26T09:51:55;6.80;99.90
25918;DHT22;13899;51.174;4.456;2024-02-26T09:54:21;6.80;99.90
25918;DHT22;13899;51.174;4.456;2024-02-26T09:56:47;6.90;99.90
25918;DHT22;13899;51.174;4.456;2024-02-26T09:59:15;6.90;99.90
25918;DHT22;13899;51.174;4.456;2024-02-26T10:01:42;6.90;99.90
25918;DHT22;13899;51.174;4.456;2024-02-26T10:04:07;6.90;99.90
25918;DHT22;13899;51.174;4.456;2024-02-26T10:06:34;6.90;99.90
25918;DHT22;13899;51.174;4.456;2024-02-26T10:08:59;6.90;99.90
25918;DHT22;13899;51.174;4.456;2024-02-26T10:11:25;6.90;99.90
25918;DHT22;13899;51.174;4.456;2024-02-26T10:13:50;6.80;99.90
25918;DHT22;13899;51.174;4.456;2024-02-26T10:16:16;7.00;99.90
25918;DHT22;13899;51.174;4.456;2024-02-26T10:18:46;7.00;99.90
25918;DHT22;13899;51.174;4.456;2024-02-26T10:21:15;7.00;99.90
25918;DHT22;13899;51.174;4.456;2024-02-26T10:23:43;6.90;99.90
25918;DHT22;13899;51.174;4.456;2024-02-26T10:26:09;6.90;99.90
25918;DHT22;13899;51.174;4.456;2024-02-26T10:28:35;6.90;99.90
25918;DHT22;13899;51.174;4.456;2024-02-26T10:31:01;7.00;99.90
25918;DHT22;13899;51.174;4.456;2024-02-26T10:33:26;7.20;99.90
25918;DHT22;13899;51.174;4.456;2024-02-26T10:35:52;7.10;99.90
25918;DHT22;13899;51.174;4.456;2024-02-26T10:38:19;7.00;99.90
25918;DHT22;13899;51.174;4.456;2024-02-26T10:40:46;7.10;99.90
25918;DHT22;13899;51.174;4.456;2024-02-26T10:43:11;7.10;99.90
25918;DHT22;13899;51.174;4.456;2024-02-26T10:45:38;7.00;99.90
25918;DHT22;13899;51.174;4.456;2024-02-26T10:48:09;6.90;99.90
25918;DHT22;13899;51.174;4.456;2024-02-26T10:50:35;7.00;99.90
25918;DHT22;13899;51.174;4.456;2024-02-26T10:53:00;7.00;99.90
25918;DHT22;13899;51.174;4.456;2024-02-26T10:55:26;7.10;99.90
25918;DHT22;13899;51.174;4.456;2024-02-26T10:57:52;7.10;99.90
25918;DHT22;13899;51.174;4.456;2024-02-26T11:00:18;7.00;99.90
25918;DHT22;13899;51.174;4.456;2024-02-26T11:02:44;7.10;99.90
25918;DHT22;13899;51.174;4.456;2024-02-26T11:05:10;7.10;99.90
25918;DHT22;13899;51.174;4.456;2024-02-26T11:07:36;7.00;99.90
25918;DHT22;13899;51.174;4.456;2024-02-26T11:10:03;7.00;99.90
25918;DHT22;13899;51.174;4.456;2024-02-26T11:12:29;7.20;99.90
25918;DHT22;13899;51.174;4.456;2024-02-26T11:14:55;7.20;99.90
25918;DHT22;13899;51.174;4.456;2024-02-26T11:17:22;7.10;99.90
25918;DHT22;13899;51.174;4.456;2024-02-26T11:19:49;7.20;99.90
25918;DHT22;13899;51.174;4.456;2024-02-26T11:22:15;7.20;99.90
25918;DHT22;13899;51.174;4.456;2024-02-26T11:24:40;7.20;99.90
25918;DHT22;13899;51.174;4.456;2024-02-26T11:27:09;7.20;99.90
25918;DHT22;13899;51.174;4.456;2024-02-26T11:29:47;7.10;99.90
25918;DHT22;13899;51.174;4.456;2024-02-26T11:32:13;7.00;99.90
25918;DHT22;13899;51.174;4.456;2024-02-26T11:34:39;7.00;99.90
25918;DHT22;13899;51.174;4.456;2024-02-26T11:37:13;7.00;99.90
25918;DHT22;13899;51.174;4.456;2024-02-26T11:39:42;7.10;99.90
25918;DHT22;13899;51.174;4.456;2024-02-26T11:42:08;7.00;99.90
25918;DHT22;13899;51.174;4.456;2024-02-26T11:44:34;6.90;99.90
25918;DHT22;13899;51.174;4.456;2024-02-26T11:49:35;7.20;99.90
25918;DHT22;13899;51.174;4.456;2024-02-26T11:52:04;7.10;99.90
25918;DHT22;13899;51.174;4.456;2024-02-26T11:54:49;7.10;99.90
25918;DHT22;13899;51.174;4.456;2024-02-26T12:02:49;6.80;99.90
25918;DHT22;13899;51.174;4.456;2024-02-26T12:05:17;6.90;99.90
25918;DHT22;13899;51.174;4.456;2024-02-26T12:07:47;6.80;99.90
25918;DHT22;13899;51.174;4.456;2024-02-26T12:10:13;6.90;99.90
25918;DHT22;13899;51.174;4.456;2024-02-26T12:12:41;6.90;99.90
25918;DHT22;13899;51.174;4.456;2024-02-26T12:15:07;7.00;99.90
25918;DHT22;13899;51.174;4.456;2024-02-26T12:17:34;7.00;99.90
25918;DHT22;13899;51.174;4.456;2024-02-26T12:20:12;7.00;99.90
25918;DHT22;13899;51.174;4.456;2024-02-26T12:22:39;7.00;99.90
25918;DHT22;13899;51.174;4.456;2024-02-26T12:25:06;7.00;99.90
25918;DHT22;13899;51.174;4.456;2024-02-26T12:27:31;6.90;99.90
25918;DHT22;13899;51.174;4.456;2024-02-26T12:29:58;6.90;99.90
25918;DHT22;13899;51.174;4.456;2024-02-26T12:32:24;6.90;99.90
25918;DHT22;13899;51.174;4.456;2024-02-26T12:34:50;6.90;99.90
25918;DHT22;13899;51.174;4.456;2024-02-26T12:37:16;6.90;99.90
25918;DHT22;13899;51.174;4.456;2024-02-26T12:39:41;7.00;99.90
25918;DHT22;13899;51.174;4.456;2024-02-26T12:42:07;7.10;99.90
25918;DHT22;13899;51.174;4.456;2024-02-26T12:44:35;7.10;99.90
25918;DHT22;13899;51.174;4.456;2024-02-26T12:47:00;7.10;99.90
25918;DHT22;13899;51.174;4.456;2024-02-26T12:49:28;7.10;99.90
25918;DHT22;13899;51.174;4.456;2024-02-26T12:51:53;7.10;99.90
25918;DHT22;13899;51.174;4.456;2024-02-26T12:54:19;7.10;99.90
25918;DHT22;13899;51.174;4.456;2024-02-26T12:56:44;7.00;99.90
25918;DHT22;13899;51.174;4.456;2024-02-26T12:59:10;7.00;99.90
25918;DHT22;13899;51.174;4.456;2024-02-26T13:01:36;7.00;99.90
25918;DHT22;13899;51.174;4.456;2024-02-26T13:04:02;7.00;99.90
25918;DHT22;13899;51.174;4.456;2024-02-26T13:06:32;7.00;99.90
25918;DHT22;13899;51.174;4.456;2024-02-26T13:08:57;6.90;99.90
25918;DHT22;13899;51.174;4.456;2024-02-26T13:11:27;6.90;99.90
25918;DHT22;13899;51.174;4.456;2024-02-26T13:13:54;7.00;99.90
25918;DHT22;13899;51.174;4.456;2024-02-26T13:16:20;7.00;99.90
25918;DHT22;13899;51.174;4.456;2024-02-26T13:18:48;6.90;99.90
25918;DHT22;13899;51.174;4.456;2024-02-26T13:21:14;6.80;99.90
25918;DHT22;13899;51.174;4.456;2024-02-26T13:23:43;6.90;99.90
25918;DHT22;13899;51.174;4.456;2024-02-26T13:26:11;6.90;99.90
25918;DHT22;13899;51.174;4.456;2024-02-26T13:28:37;6.90;99.90
25918;DHT22;13899;51.174;4.456;2024-02-26T13:31:03;6.90;99.90
25918;DHT22;13899;51.174;4.456;2024-02-26T13:33:30;6.90;99.90
25918;DHT22;13899;51.174;4.456;2024-02-26T13:35:56;7.00;99.90
25918;DHT22;13899;51.174;4.456;2024-02-26T13:38:22;7.00;99.90
25918;DHT22;13899;51.174;4.456;2024-02-26T13:40:47;7.00;99.90
25918;DHT22;13899;51.174;4.456;2024-02-26T13:43:13;6.90;99.90
25918;DHT22;13899;51.174;4.456;2024-02-26T13:45:39;6.80;99.90
25918;DHT22;13899;51.174;4.456;2024-02-26T13:48:06;6.80;99.90
25918;DHT22;13899;51.174;4.456;2024-02-26T13:50:31;6.80;99.90
25918;DHT22;13899;51.174;4.456;2024-02-26T13:52:57;6.80;99.90
25918;DHT22;13899;51.174;4.456;2024-02-26T13:55:23;6.90;99.90
25918;DHT22;13899;51.174;4.456;2024-02-26T13:57:51;6.90;99.90
25918;DHT22;13899;51.174;4.456;2024-02-26T14:00:19;6.90;99.90
25918;DHT22;13899;51.174;4.456;2024-02-26T14:02:45;6.90;99.90
25918;DHT22;13899;51.174;4.456;2024-02-26T14:05:10;6.90;99.90
25918;DHT22;13899;51.174;4.456;2024-02-26T14:07:36;6.90;99.90
25918;DHT22;13899;51.174;4.456;2024-02-26T14:10:01;6.90;99.90
25918;DHT22;13899;51.174;4.456;2024-02-26T14:12:27;6.90;99.90
25918;DHT22;13899;51.174;4.456;2024-02-26T14:14:53;7.10;99.90
25918;DHT22;13899;51.174;4.456;2024-02-26T14:17:21;7.10;99.90
25918;DHT22;13899;51.174;4.456;2024-02-26T14:19:46;7.20;99.90
25918;DHT22;13899;51.174;4.456;2024-02-26T14:22:13;7.10;99.90
25918;DHT22;13899;51.174;4.456;2024-02-26T14:24:39;7.00;99.90
25918;DHT22;13899;51.174;4.456;2024-02-26T14:27:08;7.00;99.90
25918;DHT22;13899;51.174;4.456;2024-02-26T14:29:34;6.90;99.90
25918;DHT22;13899;51.174;4.456;2024-02-26T14:32:00;6.90;99.90
25918;DHT22;13899;51.174;4.456;2024-02-26T14:34:26;7.10;99.90
25918;DHT22;13899;51.174;4.456;2024-02-26T14:36:52;7.20;99.90
25918;DHT22;13899;51.174;4.456;2024-02-26T14:39:17;7.30;99.90
25918;DHT22;13899;51.174;4.456;2024-02-26T14:41:43;7.20;99.90
25918;DHT22;13899;51.174;4.456;2024-02-26T14:44:09;7.20;99.90
25918;DHT22;13899;51.174;4.456;2024-02-26T14:46:35;7.20;99.90
25918;DHT22;13899;51.174;4.456;2024-02-26T14:49:01;7.10;99.90
25918;DHT22;13899;51.174;4.456;2024-02-26T14:51:26;7.20;99.90
25918;DHT22;13899;51.174;4.456;2024-02-26T14:53:52;7.10;99.90
25918;DHT22;13899;51.174;4.456;2024-02-26T14:56:18;7.20;99.90
25918;DHT22;13899;51.174;4.456;2024-02-26T14:58:44;7.20;99.90
25918;DHT22;13899;51.174;4.456;2024-02-26T15:01:11;7.30;99.90
25918;DHT22;13899;51.174;4.456;2024-02-26T15:03:37;7.30;99.90
25918;DHT22;13899;51.174;4.456;2024-02-26T15:06:03;7.30;99.90
25918;DHT22;13899;51.174;4.456;2024-02-26T15:08:31;7.20;99.90
25918;DHT22;13899;51.174;4.456;2024-02-26T15:10:57;7.20;99.90
25918;DHT22;13899;51.174;4.456;2024-02-26T15:13:23;7.20;99.90
25918;DHT22;13899;51.174;4.456;2024-02-26T15:15:48;7.20;99.90
25918;DHT22;13899;51.174;4.456;2024-02-26T15:18:14;7.20;99.90
25918;DHT22;13899;51.174;4.456;2024-02-26T15:20:41;7.20;99.90
25918;DHT22;13899;51.174;4.456;2024-02-26T15:23:09;7.20;99.90
25918;DHT22;13899;51.174;4.456;2024-02-26T15:25:35;7.10;99.90
25918;DHT22;13899;51.174;4.456;2024-02-26T15:28:00;7.30;99.90
25918;DHT22;13899;51.174;4.456;2024-02-26T15:30:26;7.30;99.90
25918;DHT22;13899;51.174;4.456;2024-02-26T15:32:55;7.20;99.90
25918;DHT22;13899;51.174;4.456;2024-02-26T15:35:20;7.10;99.90
25918;DHT22;13899;51.174;4.456;2024-02-26T15:37:46;7.10;99.90
25918;DHT22;13899;51.174;4.456;2024-02-26T15:40:11;7.20;99.90
25918;DHT22;13899;51.174;4.456;2024-02-26T15:42:37;7.30;99.90
25918;DHT22;13899;51.174;4.456;2024-02-26T15:45:03;7.40;99.90